sensor_id;sensor_type;location;lat;lon;timestamp;pressure;altitude;pressure_sealevel;temperature;humidity
15382;BME280;7789;51.364;12.358;2022-12-29T00:04:05;99521.09;;;10.42;79.01
15382;BME280;7789;51.364;12.358;2022-12-29T00:09:17;99513.09;;;10.44;79.62
15382;BME280;7789;51.364;12.358;2022-12-29T00:14:30;99519.41;;;10.51;79.69
15382;BME280;7789;51.364;12.358;2022-12-29T00:20:01;99515.81;;;10.52;78.84
15382;BME280;7789;51.364;12.358;2022-12-29T00:25:24;99506.59;;;10.57;78.50
15382;BME280;7789;51.364;12.358;2022-12-29T00:30:47;99510.53;;;10.61;78.16
15382;BME280;7789;51.364;12.358;2022-12-29T00:36:13;99504.06;;;10.65;78.00
15382;BME280;7789;51.364;12.358;2022-12-29T00:41:20;99493.00;;;10.71;78.21
15382;BME280;7789;51.364;12.358;2022-12-29T00:46:45;99492.41;;;10.77;77.45
15382;BME280;7789;51.364;12.358;2022-12-29T00:51:53;99490.03;;;10.84;78.28
15382;BME280;7789;51.364;12.358;2022-12-29T00:57:03;99491.22;;;10.89;78.44
15382;BME280;7789;51.364;12.358;2022-12-29T01:02:21;99495.69;;;10.97;77.98
15382;BME280;7789;51.364;12.358;2022-12-29T01:07:25;99486.59;;;11.01;77.79
15382;BME280;7789;51.364;12.358;2022-12-29T01:12:30;99490.38;;;11.06;77.62
15382;BME280;7789;51.364;12.358;2022-12-29T01:18:04;99496.16;;;11.09;78.16
15382;BME280;7789;51.364;12.358;2022-12-29T01:23:15;99499.31;;;11.13;78.42
15382;BME280;7789;51.364;12.358;2022-12-29T01:28:23;99496.91;;;11.19;78.52
15382;BME280;7789;51.364;12.358;2022-12-29T01:33:35;99496.59;;;11.22;78.43
15382;BME280;7789;51.364;12.358;2022-12-29T01:38:42;99486.00;;;11.24;78.95
15382;BME280;7789;51.364;12.358;2022-12-29T01:43:48;99492.56;;;11.28;78.89
15382;BME280;7789;51.364;12.358;2022-12-29T01:49:15;99473.72;;;11.24;79.12
15382;BME280;7789;51.364;12.358;2022-12-29T01:54:31;99480.38;;;11.19;79.86
15382;BME280;7789;51.364;12.358;2022-12-29T01:59:48;99477.44;;;11.22;79.69
15382;BME280;7789;51.364;12.358;2022-12-29T02:05:03;99476.47;;;11.23;79.74
15382;BME280;7789;51.364;12.358;2022-12-29T02:10:13;99487.78;;;11.23;80.29
15382;BME280;7789;51.364;12.358;2022-12-29T02:15:34;99482.59;;;11.31;80.50
15382;BME280;7789;51.364;12.358;2022-12-29T02:21:16;99483.47;;;11.40;81.08
15382;BME280;7789;51.364;12.358;2022-12-29T02:26:49;99472.56;;;11.44;81.00
15382;BME280;7789;51.364;12.358;2022-12-29T02:32:04;99467.84;;;11.48;80.74
15382;BME280;7789;51.364;12.358;2022-12-29T02:37:19;99474.59;;;11.50;81.37
15382;BME280;7789;51.364;12.358;2022-12-29T02:42:35;99456.09;;;11.52;80.70
15382;BME280;7789;51.364;12.358;2022-12-29T02:47:48;99452.34;;;11.54;81.60
15382;BME280;7789;51.364;12.358;2022-12-29T02:53:01;99420.94;;;11.54;81.04
15382;BME280;7789;51.364;12.358;2022-12-29T02:58:26;99409.31;;;11.49;81.18
15382;BME280;7789;51.364;12.358;2022-12-29T03:03:45;99408.31;;;11.50;82.14
15382;BME280;7789;51.364;12.358;2022-12-29T03:09:03;99384.91;;;11.48;82.14
15382;BME280;7789;51.364;12.358;2022-12-29T03:14:33;99387.38;;;11.50;82.45
15382;BME280;7789;51.364;12.358;2022-12-29T03:20:01;99382.16;;;11.50;81.99
15382;BME280;7789;51.364;12.358;2022-12-29T03:25:21;99399.34;;;11.52;82.17
15382;BME280;7789;51.364;12.358;2022-12-29T03:30:48;99399.41;;;11.60;82.14
15382;BME280;7789;51.364;12.358;2022-12-29T03:36:20;99405.81;;;11.66;81.64
15382;BME280;7789;51.364;12.358;2022-12-29T03:41:30;99421.06;;;11.70;82.23
15382;BME280;7789;51.364;12.358;2022-12-29T03:46:38;99424.03;;;11.75;81.14
15382;BME280;7789;51.364;12.358;2022-12-29T03:51:45;99426.34;;;11.78;81.34
15382;BME280;7789;51.364;12.358;2022-12-29T03:57:03;99436.50;;;11.81;81.46
15382;BME280;7789;51.364;12.358;2022-12-29T04:02:11;99447.66;;;11.83;80.99
15382;BME280;7789;51.364;12.358;2022-12-29T04:07:28;99453.06;;;11.90;80.67
15382;BME280;7789;51.364;12.358;2022-12-29T04:12:53;99461.25;;;11.87;81.73
15382;BME280;7789;51.364;12.358;2022-12-29T04:18:05;99459.47;;;11.87;81.28
15382;BME280;7789;51.364;12.358;2022-12-29T04:23:20;99453.75;;;11.92;81.70
15382;BME280;7789;51.364;12.358;2022-12-29T04:28:32;99436.09;;;11.94;81.25
15382;BME280;7789;51.364;12.358;2022-12-29T04:33:44;99433.47;;;11.94;81.55
15382;BME280;7789;51.364;12.358;2022-12-29T04:38:53;99424.78;;;11.93;81.51
15382;BME280;7789;51.364;12.358;2022-12-29T04:43:57;99419.22;;;11.96;82.69
15382;BME280;7789;51.364;12.358;2022-12-29T04:49:13;99411.88;;;12.00;82.31
15382;BME280;7789;51.364;12.358;2022-12-29T04:54:29;99409.13;;;12.01;82.56
15382;BME280;7789;51.364;12.358;2022-12-29T04:59:36;99418.44;;;12.04;82.80
15382;BME280;7789;51.364;12.358;2022-12-29T05:04:44;99392.41;;;12.02;83.28
15382;BME280;7789;51.364;12.358;2022-12-29T05:09:52;99394.19;;;11.94;84.66
15382;BME280;7789;51.364;12.358;2022-12-29T05:15:04;99388.09;;;11.85;84.58
15382;BME280;7789;51.364;12.358;2022-12-29T05:20:19;99390.19;;;11.82;85.52
15382;BME280;7789;51.364;12.358;2022-12-29T05:25:51;99390.66;;;11.77;85.97
15382;BME280;7789;51.364;12.358;2022-12-29T05:30:59;99380.16;;;11.69;86.51
15382;BME280;7789;51.364;12.358;2022-12-29T05:36:13;99397.31;;;11.64;87.38
15382;BME280;7789;51.364;12.358;2022-12-29T05:41:36;99380.28;;;11.60;87.62
15382;BME280;7789;51.364;12.358;2022-12-29T05:46:46;99377.25;;;11.55;88.36
15382;BME280;7789;51.364;12.358;2022-12-29T05:51:59;99377.16;;;11.56;88.67
15382;BME280;7789;51.364;12.358;2022-12-29T05:57:22;99373.84;;;11.54;89.16
15382;BME280;7789;51.364;12.358;2022-12-29T06:02:34;99360.41;;;11.49;89.85
15382;BME280;7789;51.364;12.358;2022-12-29T06:07:53;99373.31;;;11.51;89.14
15382;BME280;7789;51.364;12.358;2022-12-29T06:13:00;99368.00;;;11.60;89.23
15382;BME280;7789;51.364;12.358;2022-12-29T06:18:12;99375.91;;;11.68;89.67
15382;BME280;7789;51.364;12.358;2022-12-29T06:23:26;99367.41;;;11.74;89.10
15382;BME280;7789;51.364;12.358;2022-12-29T06:28:39;99363.50;;;11.78;89.41
15382;BME280;7789;51.364;12.358;2022-12-29T06:33:57;99369.09;;;11.83;89.33
15382;BME280;7789;51.364;12.358;2022-12-29T06:39:10;99365.19;;;11.87;88.48
15382;BME280;7789;51.364;12.358;2022-12-29T06:44:18;99370.25;;;11.89;88.84
15382;BME280;7789;51.364;12.358;2022-12-29T06:49:35;99361.41;;;11.90;88.88
15382;BME280;7789;51.364;12.358;2022-12-29T06:54:44;99371.03;;;11.81;89.32
15382;BME280;7789;51.364;12.358;2022-12-29T06:59:55;99363.00;;;11.75;88.85
15382;BME280;7789;51.364;12.358;2022-12-29T07:05:01;99364.91;;;11.65;90.28
15382;BME280;7789;51.364;12.358;2022-12-29T07:10:20;99362.75;;;11.60;90.85
15382;BME280;7789;51.364;12.358;2022-12-29T07:15:30;99360.75;;;11.54;91.26
15382;BME280;7789;51.364;12.358;2022-12-29T07:20:43;99368.25;;;11.49;91.72
15382;BME280;7789;51.364;12.358;2022-12-29T07:25:59;99368.31;;;11.57;92.07
15382;BME280;7789;51.364;12.358;2022-12-29T07:31:21;99366.03;;;11.62;91.54
15382;BME280;7789;51.364;12.358;2022-12-29T07:36:28;99357.38;;;11.62;93.03
15382;BME280;7789;51.364;12.358;2022-12-29T07:41:36;99365.13;;;11.71;93.34
15382;BME280;7789;51.364;12.358;2022-12-29T07:46:46;99372.38;;;11.85;93.14
15382;BME280;7789;51.364;12.358;2022-12-29T07:52:07;99373.41;;;12.00;92.70
15382;BME280;7789;51.364;12.358;2022-12-29T07:57:15;99373.53;;;11.91;92.27
15382;BME280;7789;51.364;12.358;2022-12-29T08:02:35;99379.09;;;11.88;92.84
15382;BME280;7789;51.364;12.358;2022-12-29T08:07:43;99379.59;;;11.91;92.93
15382;BME280;7789;51.364;12.358;2022-12-29T08:12:47;99392.88;;;11.98;92.84
15382;BME280;7789;51.364;12.358;2022-12-29T08:17:56;99370.97;;;12.07;92.95
15382;BME280;7789;51.364;12.358;2022-12-29T08:23:00;99367.34;;;12.08;92.77
15382;BME280;7789;51.364;12.358;2022-12-29T08:28:04;99373.75;;;12.05;92.54
15382;BME280;7789;51.364;12.358;2022-12-29T08:33:09;99377.72;;;12.17;92.63
15382;BME280;7789;51.364;12.358;2022-12-29T08:38:15;99372.50;;;12.25;91.99
15382;BME280;7789;51.364;12.358;2022-12-29T08:43:20;99377.41;;;12.28;92.01
15382;BME280;7789;51.364;12.358;2022-12-29T08:48:46;99367.75;;;12.37;91.38
15382;BME280;7789;51.364;12.358;2022-12-29T08:53:54;99370.56;;;12.43;90.79
15382;BME280;7789;51.364;12.358;2022-12-29T08:59:00;99374.66;;;12.46;90.48
15382;BME280;7789;51.364;12.358;2022-12-29T09:04:06;99366.31;;;12.58;90.48
15382;BME280;7789;51.364;12.358;2022-12-29T09:09:19;99361.91;;;12.67;90.07
15382;BME280;7789;51.364;12.358;2022-12-29T09:14:23;99384.03;;;12.80;89.96
15382;BME280;7789;51.364;12.358;2022-12-29T09:19:31;99379.28;;;12.91;89.14
15382;BME280;7789;51.364;12.358;2022-12-29T09:24:37;99385.19;;;13.09;88.39
15382;BME280;7789;51.364;12.358;2022-12-29T09:29:53;99374.53;;;13.27;87.32
15382;BME280;7789;51.364;12.358;2022-12-29T09:35:05;99389.22;;;13.52;86.59
15382;BME280;7789;51.364;12.358;2022-12-29T09:40:22;99365.72;;;13.66;84.99
15382;BME280;7789;51.364;12.358;2022-12-29T09:45:32;99362.69;;;13.85;84.89
15382;BME280;7789;51.364;12.358;2022-12-29T09:50:44;99354.03;;;14.07;83.67
15382;BME280;7789;51.364;12.358;2022-12-29T09:55:55;99350.50;;;14.31;82.30
15382;BME280;7789;51.364;12.358;2022-12-29T10:01:07;99340.25;;;14.36;81.51
15382;BME280;7789;51.364;12.358;2022-12-29T10:06:22;99347.06;;;14.53;80.27
15382;BME280;7789;51.364;12.358;2022-12-29T10:11:42;99333.91;;;14.53;79.58
15382;BME280;7789;51.364;12.358;2022-12-29T10:16:58;99330.69;;;14.43;79.57
15382;BME280;7789;51.364;12.358;2022-12-29T10:22:24;99323.50;;;14.37;79.51
15382;BME280;7789;51.364;12.358;2022-12-29T10:27:31;99311.00;;;14.16;78.74
15382;BME280;7789;51.364;12.358;2022-12-29T10:32:41;99317.47;;;13.98;79.56
15382;BME280;7789;51.364;12.358;2022-12-29T10:37:57;99321.78;;;13.91;79.94
15382;BME280;7789;51.364;12.358;2022-12-29T10:43:17;99325.91;;;13.85;79.54
15382;BME280;7789;51.364;12.358;2022-12-29T10:48:31;99327.00;;;13.99;79.73
15382;BME280;7789;51.364;12.358;2022-12-29T10:53:43;99338.41;;;14.14;79.76
15382;BME280;7789;51.364;12.358;2022-12-29T10:58:50;99336.22;;;14.25;79.28
15382;BME280;7789;51.364;12.358;2022-12-29T11:04:19;99335.19;;;14.34;78.98
15382;BME280;7789;51.364;12.358;2022-12-29T11:09:44;99331.81;;;14.48;78.65
15382;BME280;7789;51.364;12.358;2022-12-29T11:15:11;99335.66;;;14.60;78.84
15382;BME280;7789;51.364;12.358;2022-12-29T11:20:33;99329.50;;;14.68;77.53
15382;BME280;7789;51.364;12.358;2022-12-29T11:26:06;99323.75;;;14.86;77.83
15382;BME280;7789;51.364;12.358;2022-12-29T11:31:17;99315.44;;;14.97;77.09
15382;BME280;7789;51.364;12.358;2022-12-29T11:36:24;99312.81;;;14.97;76.27
15382;BME280;7789;51.364;12.358;2022-12-29T11:42:03;99325.97;;;14.97;76.27
15382;BME280;7789;51.364;12.358;2022-12-29T11:47:21;99333.88;;;14.97;76.13
15382;BME280;7789;51.364;12.358;2022-12-29T11:52:34;99334.06;;;15.10;75.94
15382;BME280;7789;51.364;12.358;2022-12-29T11:57:50;99340.44;;;15.16;75.44
15382;BME280;7789;51.364;12.358;2022-12-29T12:03:03;99332.97;;;15.19;75.63
15382;BME280;7789;51.364;12.358;2022-12-29T12:08:12;99345.63;;;15.24;75.17
15382;BME280;7789;51.364;12.358;2022-12-29T12:13:31;99334.69;;;15.35;74.59
15382;BME280;7789;51.364;12.358;2022-12-29T12:18:46;99330.31;;;15.42;74.43
15382;BME280;7789;51.364;12.358;2022-12-29T12:24:03;99330.94;;;15.44;74.65
15382;BME280;7789;51.364;12.358;2022-12-29T12:29:20;99331.22;;;15.49;74.04
15382;BME280;7789;51.364;12.358;2022-12-29T12:34:38;99334.22;;;15.60;74.06
15382;BME280;7789;51.364;12.358;2022-12-29T12:40:15;99328.84;;;15.68;72.82
15382;BME280;7789;51.364;12.358;2022-12-29T12:45:48;99330.97;;;15.58;73.15
15382;BME280;7789;51.364;12.358;2022-12-29T12:51:08;99325.13;;;15.48;73.78
15382;BME280;7789;51.364;12.358;2022-12-29T12:56:32;99334.94;;;15.40;73.36
15382;BME280;7789;51.364;12.358;2022-12-29T13:01:53;99336.69;;;15.33;73.96
15382;BME280;7789;51.364;12.358;2022-12-29T13:07:12;99330.13;;;15.29;73.67
15382;BME280;7789;51.364;12.358;2022-12-29T13:12:32;99332.41;;;15.32;74.07
15382;BME280;7789;51.364;12.358;2022-12-29T13:17:51;99356.69;;;15.19;74.03
15382;BME280;7789;51.364;12.358;2022-12-29T13:23:07;99349.03;;;15.10;74.52
15382;BME280;7789;51.364;12.358;2022-12-29T13:28:25;99354.84;;;15.05;74.57
15382;BME280;7789;51.364;12.358;2022-12-29T13:33:46;99360.09;;;15.05;74.70
15382;BME280;7789;51.364;12.358;2022-12-29T13:39:02;99351.28;;;14.98;74.60
15382;BME280;7789;51.364;12.358;2022-12-29T13:44:11;99351.53;;;14.89;75.04
15382;BME280;7789;51.364;12.358;2022-12-29T13:49:39;99365.19;;;15.29;73.37
15382;BME280;7789;51.364;12.358;2022-12-29T13:54:57;99363.69;;;14.90;75.01
15382;BME280;7789;51.364;12.358;2022-12-29T14:00:12;99383.63;;;14.62;76.12
15382;BME280;7789;51.364;12.358;2022-12-29T14:05:30;99395.09;;;14.47;76.37
15382;BME280;7789;51.364;12.358;2022-12-29T14:10:37;99396.13;;;14.38;76.69
15382;BME280;7789;51.364;12.358;2022-12-29T14:15:47;99394.56;;;14.29;77.27
15382;BME280;7789;51.364;12.358;2022-12-29T14:21:01;99413.94;;;14.28;77.54
15382;BME280;7789;51.364;12.358;2022-12-29T14:26:17;99409.06;;;14.17;77.63
15382;BME280;7789;51.364;12.358;2022-12-29T14:31:36;99415.19;;;14.01;78.55
15382;BME280;7789;51.364;12.358;2022-12-29T14:37:01;99411.63;;;13.86;79.16
15382;BME280;7789;51.364;12.358;2022-12-29T14:42:18;99418.22;;;13.74;79.67
15382;BME280;7789;51.364;12.358;2022-12-29T14:47:34;99432.53;;;13.64;80.25
15382;BME280;7789;51.364;12.358;2022-12-29T14:52:50;99432.38;;;13.57;80.40
15382;BME280;7789;51.364;12.358;2022-12-29T14:58:05;99439.81;;;13.54;80.53
15382;BME280;7789;51.364;12.358;2022-12-29T15:03:19;99441.63;;;13.45;81.21
15382;BME280;7789;51.364;12.358;2022-12-29T15:08:32;99446.72;;;13.39;81.35
15382;BME280;7789;51.364;12.358;2022-12-29T15:13:46;99465.88;;;13.39;81.28
15382;BME280;7789;51.364;12.358;2022-12-29T15:19:04;99465.38;;;13.36;81.36
15382;BME280;7789;51.364;12.358;2022-12-29T15:24:30;99471.63;;;13.35;81.43
15382;BME280;7789;51.364;12.358;2022-12-29T15:29:45;99473.94;;;13.30;81.56
15382;BME280;7789;51.364;12.358;2022-12-29T15:34:58;99495.44;;;13.17;81.73
15382;BME280;7789;51.364;12.358;2022-12-29T15:40:22;99504.91;;;13.02;82.30
15382;BME280;7789;51.364;12.358;2022-12-29T15:45:35;99505.38;;;12.90;82.58
15382;BME280;7789;51.364;12.358;2022-12-29T15:50:49;99513.19;;;12.82;82.93
15382;BME280;7789;51.364;12.358;2022-12-29T15:56:01;99520.22;;;12.74;83.06
15382;BME280;7789;51.364;12.358;2022-12-29T16:01:18;99530.84;;;12.64;83.64
15382;BME280;7789;51.364;12.358;2022-12-29T16:06:28;99533.63;;;12.55;83.22
15382;BME280;7789;51.364;12.358;2022-12-29T16:11:55;99538.47;;;12.42;84.55
15382;BME280;7789;51.364;12.358;2022-12-29T16:17:04;99547.28;;;12.33;84.70
15382;BME280;7789;51.364;12.358;2022-12-29T16:22:17;99539.38;;;12.25;84.61
15382;BME280;7789;51.364;12.358;2022-12-29T16:27:39;99542.09;;;12.15;84.52
15382;BME280;7789;51.364;12.358;2022-12-29T16:32:50;99543.84;;;12.07;84.56
15382;BME280;7789;51.364;12.358;2022-12-29T16:38:16;99544.34;;;12.02;84.42
15382;BME280;7789;51.364;12.358;2022-12-29T16:43:25;99540.84;;;11.94;83.38
15382;BME280;7789;51.364;12.358;2022-12-29T16:48:45;99555.69;;;11.85;83.43
15382;BME280;7789;51.364;12.358;2022-12-29T16:54:17;99562.94;;;11.74;83.45
15382;BME280;7789;51.364;12.358;2022-12-29T16:59:55;99564.53;;;11.67;83.04
15382;BME280;7789;51.364;12.358;2022-12-29T17:05:12;99561.47;;;11.54;83.63
15382;BME280;7789;51.364;12.358;2022-12-29T17:10:21;99566.78;;;11.44;83.86
15382;BME280;7789;51.364;12.358;2022-12-29T17:15:54;99569.78;;;11.32;85.04
15382;BME280;7789;51.364;12.358;2022-12-29T17:21:04;99568.34;;;11.20;84.86
15382;BME280;7789;51.364;12.358;2022-12-29T17:26:11;99566.63;;;11.11;85.19
15382;BME280;7789;51.364;12.358;2022-12-29T17:31:49;99569.31;;;11.02;86.65
15382;BME280;7789;51.364;12.358;2022-12-29T17:36:56;99569.38;;;10.92;85.44
15382;BME280;7789;51.364;12.358;2022-12-29T17:42:09;99562.78;;;10.88;85.48
15382;BME280;7789;51.364;12.358;2022-12-29T17:47:24;99569.28;;;10.84;86.32
15382;BME280;7789;51.364;12.358;2022-12-29T17:52:34;99566.59;;;10.76;86.10
15382;BME280;7789;51.364;12.358;2022-12-29T17:57:51;99580.09;;;10.72;86.16
15382;BME280;7789;51.364;12.358;2022-12-29T18:03:01;99583.81;;;10.69;86.87
15382;BME280;7789;51.364;12.358;2022-12-29T18:08:13;99598.97;;;10.66;87.36
15382;BME280;7789;51.364;12.358;2022-12-29T18:13:26;99586.03;;;10.64;86.33
15382;BME280;7789;51.364;12.358;2022-12-29T18:18:49;99578.19;;;10.64;87.50
15382;BME280;7789;51.364;12.358;2022-12-29T18:23:57;99587.16;;;10.62;88.22
15382;BME280;7789;51.364;12.358;2022-12-29T18:29:03;99592.38;;;10.62;87.68
15382;BME280;7789;51.364;12.358;2022-12-29T18:34:18;99596.91;;;10.60;88.25
15382;BME280;7789;51.364;12.358;2022-12-29T18:39:24;99588.28;;;10.59;89.34
15382;BME280;7789;51.364;12.358;2022-12-29T18:44:32;99585.97;;;10.56;89.60
15382;BME280;7789;51.364;12.358;2022-12-29T18:49:46;99600.78;;;10.56;89.59
15382;BME280;7789;51.364;12.358;2022-12-29T18:54:52;99596.97;;;10.50;90.44
15382;BME280;7789;51.364;12.358;2022-12-29T18:59:59;99613.06;;;10.46;90.48
15382;BME280;7789;51.364;12.358;2022-12-29T19:05:19;99614.19;;;10.43;91.05
15382;BME280;7789;51.364;12.358;2022-12-29T19:10:27;99613.66;;;10.40;90.82
15382;BME280;7789;51.364;12.358;2022-12-29T19:15:33;99616.97;;;10.32;91.52
15382;BME280;7789;51.364;12.358;2022-12-29T19:20:47;99608.59;;;10.29;91.48
15382;BME280;7789;51.364;12.358;2022-12-29T19:25:58;99606.84;;;10.20;91.60
15382;BME280;7789;51.364;12.358;2022-12-29T19:31:08;99602.88;;;10.16;92.98
15382;BME280;7789;51.364;12.358;2022-12-29T19:36:14;99610.28;;;10.11;93.06
15382;BME280;7789;51.364;12.358;2022-12-29T19:41:20;99602.34;;;10.03;93.63
15382;BME280;7789;51.364;12.358;2022-12-29T19:46:25;99601.38;;;10.04;93.35
15382;BME280;7789;51.364;12.358;2022-12-29T19:51:34;99602.06;;;10.06;93.74
15382;BME280;7789;51.364;12.358;2022-12-29T19:56:52;99596.03;;;9.96;94.06
15382;BME280;7789;51.364;12.358;2022-12-29T20:02:17;99595.19;;;9.95;94.70
15382;BME280;7789;51.364;12.358;2022-12-29T20:07:25;99596.28;;;9.93;94.34
15382;BME280;7789;51.364;12.358;2022-12-29T20:12:29;99614.56;;;9.93;95.26
15382;BME280;7789;51.364;12.358;2022-12-29T20:17:40;99608.13;;;9.87;95.45
15382;BME280;7789;51.364;12.358;2022-12-29T20:23:24;99607.41;;;9.85;95.40
15382;BME280;7789;51.364;12.358;2022-12-29T20:28:31;99626.94;;;9.81;96.01
15382;BME280;7789;51.364;12.358;2022-12-29T20:33:42;99632.03;;;9.83;96.29
15382;BME280;7789;51.364;12.358;2022-12-29T20:38:59;99621.59;;;9.83;96.09
15382;BME280;7789;51.364;12.358;2022-12-29T20:44:07;99618.81;;;9.84;96.17
15382;BME280;7789;51.364;12.358;2022-12-29T20:49:23;99628.06;;;9.79;96.85
15382;BME280;7789;51.364;12.358;2022-12-29T20:54:31;99637.78;;;9.77;96.20
15382;BME280;7789;51.364;12.358;2022-12-29T20:59:42;99634.66;;;9.73;97.18
15382;BME280;7789;51.364;12.358;2022-12-29T21:04:48;99644.81;;;9.67;97.27
15382;BME280;7789;51.364;12.358;2022-12-29T21:10:17;99650.56;;;9.61;97.33
15382;BME280;7789;51.364;12.358;2022-12-29T21:15:22;99649.47;;;9.54;97.05
15382;BME280;7789;51.364;12.358;2022-12-29T21:20:33;99661.16;;;9.50;97.45
15382;BME280;7789;51.364;12.358;2022-12-29T21:26:07;99657.00;;;9.47;97.24
15382;BME280;7789;51.364;12.358;2022-12-29T21:31:24;99664.16;;;9.45;97.10
15382;BME280;7789;51.364;12.358;2022-12-29T21:36:28;99667.84;;;9.43;97.49
15382;BME280;7789;51.364;12.358;2022-12-29T21:41:33;99678.16;;;9.44;96.69
15382;BME280;7789;51.364;12.358;2022-12-29T21:46:38;99679.94;;;9.44;97.49
15382;BME280;7789;51.364;12.358;2022-12-29T21:51:42;99678.84;;;9.46;97.01
15382;BME280;7789;51.364;12.358;2022-12-29T21:56:53;99680.22;;;9.50;96.32
15382;BME280;7789;51.364;12.358;2022-12-29T22:01:57;99682.56;;;9.53;96.30
15382;BME280;7789;51.364;12.358;2022-12-29T22:07:19;99693.53;;;9.57;95.48
15382;BME280;7789;51.364;12.358;2022-12-29T22:12:41;99690.41;;;9.53;95.30
15382;BME280;7789;51.364;12.358;2022-12-29T22:18:04;99695.19;;;9.48;95.11
15382;BME280;7789;51.364;12.358;2022-12-29T22:23:08;99689.28;;;9.46;95.43
15382;BME280;7789;51.364;12.358;2022-12-29T22:28:13;99694.66;;;9.45;95.29
15382;BME280;7789;51.364;12.358;2022-12-29T22:33:16;99703.41;;;9.44;95.39
15382;BME280;7789;51.364;12.358;2022-12-29T22:38:19;99724.97;;;9.36;95.22
15382;BME280;7789;51.364;12.358;2022-12-29T22:43:24;99727.28;;;9.30;95.95
15382;BME280;7789;51.364;12.358;2022-12-29T22:48:31;99736.31;;;9.26;95.85
15382;BME280;7789;51.364;12.358;2022-12-29T22:53:34;99754.41;;;9.18;96.01
15382;BME280;7789;51.364;12.358;2022-12-29T22:58:40;99768.94;;;9.11;96.12
15382;BME280;7789;51.364;12.358;2022-12-29T23:03:44;99775.50;;;9.06;96.33
15382;BME280;7789;51.364;12.358;2022-12-29T23:08:47;99776.84;;;9.00;96.22
15382;BME280;7789;51.364;12.358;2022-12-29T23:13:52;99778.88;;;8.97;96.60
15382;BME280;7789;51.364;12.358;2022-12-29T23:18:56;99786.00;;;8.95;96.95
15382;BME280;7789;51.364;12.358;2022-12-29T23:23:59;99779.25;;;8.92;97.13
15382;BME280;7789;51.364;12.358;2022-12-29T23:29:09;99767.44;;;8.88;97.49
15382;BME280;7789;51.364;12.358;2022-12-29T23:34:14;99775.25;;;8.88;97.37
15382;BME280;7789;51.364;12.358;2022-12-29T23:39:19;99779.53;;;8.89;97.53
15382;BME280;7789;51.364;12.358;2022-12-29T23:44:25;99776.53;;;8.94;97.53
15382;BME280;7789;51.364;12.358;2022-12-29T23:49:28;99785.72;;;8.98;97.19
15382;BME280;7789;51.364;12.358;2022-12-29T23:54:31;99806.31;;;9.01;96.88
15382;BME280;7789;51.364;12.358;2022-12-29T23:59:36;99799.06;;;9.04;96.64
